Time;durP1;ratioP1;P1;durP2;ratioP2;P2;SDS_P1;SDS_P2;PMS_P1;PMS_P2;Temp;Humidity;BMP_temperature;BMP_pressure;BME280_temperature;BME280_humidity;BME280_pressure;Samples;Min_cycle;Max_cycle;Signal;HPM_P1;HPM_P2
2023/07/30 00:01:20;;;;;;;4.20;3.60;;;18.90;99.90;;;;;;5029319;28;20223;-65
2023/07/30 00:03:45;;;;;;;3.10;2.90;;;19.00;99.90;;;;;;5029270;28;20180;-65
2023/07/30 00:06:11;;;;;;;4.33;3.00;;;18.90;99.90;;;;;;5029268;28;20247;-64
2023/07/30 00:08:36;;;;;;;3.97;3.03;;;18.90;99.90;;;;;;5027624;28;20234;-65
2023/07/30 00:11:02;;;;;;;2.97;2.73;;;19.00;99.90;;;;;;5029184;28;20239;-65
2023/07/30 00:13:27;;;;;;;3.00;2.70;;;18.90;99.90;;;;;;5029415;28;20223;-65
2023/07/30 00:15:53;;;;;;;3.77;2.80;;;18.90;99.90;;;;;;5029128;28;20208;-64
2023/07/30 00:18:19;;;;;;;3.60;3.30;;;18.90;99.90;;;;;;5029091;28;20666;-65
2023/07/30 00:20:44;;;;;;;3.10;2.70;;;18.80;99.90;;;;;;5028959;28;20193;-65
2023/07/30 00:23:10;;;;;;;4.03;3.40;;;18.70;99.90;;;;;;5028804;28;20234;-65
2023/07/30 00:25:36;;;;;;;4.53;2.90;;;18.70;99.90;;;;;;5028979;28;20185;-65
2023/07/30 00:28:01;;;;;;;3.80;3.27;;;18.70;99.90;;;;;;5028951;28;20225;-65
2023/07/30 00:30:27;;;;;;;3.60;3.10;;;18.70;99.90;;;;;;5028729;28;20671;-65
2023/07/30 00:32:52;;;;;;;4.73;3.30;;;18.70;99.90;;;;;;5027491;28;20238;-64
2023/07/30 00:35:18;;;;;;;4.70;3.33;;;18.70;99.90;;;;;;5028649;28;20306;-65
2023/07/30 00:37:44;;;;;;;3.80;2.97;;;18.70;99.90;;;;;;5028771;28;20258;-65
2023/07/30 00:40:10;;;;;;;4.93;2.80;;;18.80;99.90;;;;;;5028697;28;20207;-65
2023/07/30 00:42:35;;;;;;;2.80;2.30;;;18.70;99.90;;;;;;5028816;28;20201;-65
2023/07/30 00:45:01;;;;;;;3.60;3.30;;;18.70;99.90;;;;;;5028682;28;20497;-65
2023/07/30 00:47:27;;;;;;;3.50;3.20;;;18.70;99.90;;;;;;5028843;28;20272;-65
2023/07/30 00:49:53;;;;;;;9.37;4.07;;;18.70;99.90;;;;;;5028541;28;20746;-65
2023/07/30 00:52:21;;;;;;;4.37;3.67;;;18.70;99.90;;;;;;5028637;28;20450;-65
2023/07/30 00:54:51;;;;;;;4.33;3.90;;;18.80;99.90;;;;;;5028723;28;20420;-65
2023/07/30 00:57:19;;;;;;;4.20;3.77;;;18.70;99.90;;;;;;5028596;28;20424;-65
2023/07/30 00:59:46;;;;;;;4.57;4.17;;;18.70;99.90;;;;;;5028256;28;20419;-65
2023/07/30 01:02:12;;;;;;;5.73;4.30;;;18.60;99.90;;;;;;5028720;28;20423;-65
2023/07/30 01:04:39;;;;;;;4.30;3.90;;;18.60;99.90;;;;;;5028403;28;20524;-65
2023/07/30 01:07:05;;;;;;;8.60;3.77;;;18.60;99.90;;;;;;5028449;28;20430;-65
2023/07/30 01:09:32;;;;;;;3.87;3.40;;;18.50;99.90;;;;;;5028254;28;20452;-65
2023/07/30 01:11:59;;;;;;;3.80;3.03;;;18.60;99.90;;;;;;5028400;28;20452;-65
2023/07/30 01:14:26;;;;;;;6.13;2.90;;;18.60;99.90;;;;;;5027060;28;20450;-65
2023/07/30 01:16:52;;;;;;;3.93;3.10;;;18.70;99.90;;;;;;5028408;28;20462;-65
2023/07/30 01:19:18;;;;;;;8.10;3.33;;;18.70;99.90;;;;;;5028564;28;20422;-64
2023/07/30 01:21:44;;;;;;;2.57;2.30;;;18.80;99.90;;;;;;5028513;28;20945;-65
2023/07/30 01:24:09;;;;;;;3.47;3.17;;;18.80;99.90;;;;;;5028372;28;20418;-65
2023/07/30 01:26:48;;;;;;;2.93;2.57;;;18.90;99.90;;;;;;5028420;28;20195;-65
2023/07/30 01:29:24;;;;;;;5.47;3.00;;;19.00;99.90;;;;;;5028453;28;20183;-65
2023/07/30 01:31:56;;;;;;;3.03;2.73;;;18.90;99.90;;;;;;5028331;28;20457;-65
2023/07/30 01:34:26;;;;;;;3.50;2.90;;;18.90;99.90;;;;;;5028944;28;20546;-64
2023/07/30 01:36:53;;;;;;;3.20;2.57;;;18.90;99.90;;;;;;5032317;28;20532;-65
2023/07/30 01:39:20;;;;;;;4.50;3.00;;;18.90;99.90;;;;;;5032330;28;20422;-65
2023/07/30 01:41:45;;;;;;;4.73;2.63;;;18.90;99.90;;;;;;5032220;28;20916;-65
2023/07/30 01:44:11;;;;;;;3.33;3.03;;;18.90;99.90;;;;;;5032271;28;20877;-65
2023/07/30 01:46:37;;;;;;;3.03;2.77;;;18.90;99.90;;;;;;5032126;28;20191;-65
2023/07/30 01:49:02;;;;;;;3.70;2.63;;;18.80;99.90;;;;;;5032049;28;20255;-65
2023/07/30 01:51:29;;;;;;;3.93;3.00;;;18.90;99.90;;;;;;5032005;28;20251;-65
2023/07/30 01:53:54;;;;;;;3.60;3.07;;;18.80;99.90;;;;;;5032042;28;20553;-65
2023/07/30 01:56:20;;;;;;;3.03;2.63;;;18.90;99.90;;;;;;5032604;28;20749;-64
2023/07/30 01:58:45;;;;;;;6.27;3.20;;;18.80;99.90;;;;;;5032557;28;20205;-65
2023/07/30 02:01:12;;;;;;;2.83;2.50;;;18.80;99.90;;;;;;5032543;28;20441;-65
2023/07/30 02:03:37;;;;;;;2.87;2.47;;;18.90;99.90;;;;;;5032676;28;20722;-65
2023/07/30 02:06:03;;;;;;;2.90;2.70;;;18.80;99.90;;;;;;5032540;28;20505;-65
2023/07/30 02:08:28;;;;;;;2.50;2.30;;;18.90;99.90;;;;;;5032473;28;20181;-65
2023/07/30 02:10:58;;;;;;;2.83;2.53;;;18.80;99.90;;;;;;5032449;28;20270;-65
2023/07/30 02:13:43;;;;;;;3.47;3.00;;;18.80;99.90;;;;;;5032469;28;20192;-65
2023/07/30 02:16:09;;;;;;;3.33;2.83;;;18.70;99.90;;;;;;5035358;28;21039;-65
2023/07/30 02:18:34;;;;;;;3.57;2.40;;;18.70;99.90;;;;;;5032209;28;20511;-64
2023/07/30 02:21:00;;;;;;;3.13;2.83;;;18.60;99.90;;;;;;5032197;28;20784;-64
2023/07/30 02:23:25;;;;;;;2.63;2.43;;;18.70;99.90;;;;;;5032260;28;20338;-64
2023/07/30 02:25:51;;;;;;;3.37;2.80;;;18.60;99.90;;;;;;5032146;28;20674;-65
2023/07/30 02:28:16;;;;;;;2.50;2.30;;;18.60;99.90;;;;;;5031898;28;20716;-65
2023/07/30 02:30:42;;;;;;;3.90;2.97;;;18.70;99.90;;;;;;5031556;28;20208;-64
2023/07/30 02:33:08;;;;;;;9.67;3.07;;;18.70;99.90;;;;;;5031631;28;20188;-65
2023/07/30 02:35:33;;;;;;;3.97;3.07;;;18.60;99.90;;;;;;5031410;28;20299;-65
2023/07/30 02:37:59;;;;;;;6.27;3.13;;;18.50;99.90;;;;;;5031160;28;20201;-65
2023/07/30 02:40:24;;;;;;;3.33;2.90;;;18.40;99.90;;;;;;5031113;28;20205;-65
2023/07/30 02:42:50;;;;;;;3.40;2.70;;;18.30;99.90;;;;;;5031064;28;20187;-65
2023/07/30 02:45:16;;;;;;;2.70;2.50;;;18.30;99.90;;;;;;5030804;28;20217;-65
2023/07/30 02:47:41;;;;;;;3.90;2.90;;;18.30;99.90;;;;;;5031422;28;20192;-65
2023/07/30 02:50:09;;;;;;;2.97;2.40;;;18.40;99.90;;;;;;5031106;28;20458;-65
2023/07/30 02:52:34;;;;;;;9.97;3.47;;;18.50;99.90;;;;;;5031171;28;20294;-65
2023/07/30 02:55:00;;;;;;;3.53;2.80;;;18.40;99.90;;;;;;5030960;28;20585;-64
2023/07/30 02:57:25;;;;;;;3.00;2.73;;;18.30;99.90;;;;;;5030889;28;20661;-65
2023/07/30 02:59:51;;;;;;;6.57;2.93;;;18.30;99.90;;;;;;5031066;28;20207;-64
2023/07/30 03:02:16;;;;;;;4.00;2.90;;;18.40;99.90;;;;;;5030864;28;20188;-65
2023/07/30 03:04:42;;;;;;;5.07;2.67;;;18.40;99.90;;;;;;5030804;28;20205;-65
2023/07/30 03:07:09;;;;;;;4.90;2.70;;;18.40;99.90;;;;;;5030912;28;20536;-65
2023/07/30 03:09:34;;;;;;;2.80;2.60;;;18.40;99.90;;;;;;5030956;28;20210;-64
2023/07/30 03:12:00;;;;;;;4.10;2.90;;;18.30;99.90;;;;;;5030725;28;20543;-64
2023/07/30 03:14:25;;;;;;;2.50;2.30;;;18.30;99.90;;;;;;5030851;28;20188;-65
2023/07/30 03:16:51;;;;;;;5.63;2.93;;;18.30;99.90;;;;;;5031035;28;20301;-64
2023/07/30 03:19:17;;;;;;;2.90;2.67;;;18.30;99.90;;;;;;5031334;28;20234;-65
2023/07/30 03:21:42;;;;;;;2.77;2.43;;;18.30;99.90;;;;;;5031190;28;20582;-64
2023/07/30 03:24:08;;;;;;;3.20;2.30;;;18.30;99.90;;;;;;5031120;28;20210;-64
2023/07/30 03:26:33;;;;;;;2.87;1.93;;;18.40;99.90;;;;;;5031100;28;20658;-65
2023/07/30 03:28:59;;;;;;;3.10;2.40;;;18.50;99.90;;;;;;5031112;28;20215;-64
2023/07/30 03:31:25;;;;;;;3.33;2.57;;;18.50;99.90;;;;;;5030869;28;20853;-65
2023/07/30 03:33:51;;;;;;;3.23;2.40;;;18.50;99.90;;;;;;5030899;28;20418;-65
2023/07/30 03:36:16;;;;;;;3.70;2.77;;;18.50;99.90;;;;;;5030935;28;20209;-65
2023/07/30 03:38:43;;;;;;;2.90;2.50;;;18.50;99.90;;;;;;5030675;28;20554;-64
2023/07/30 03:41:10;;;;;;;5.30;2.53;;;18.50;99.90;;;;;;5030786;28;20215;-65
2023/07/30 03:43:36;;;;;;;5.83;2.87;;;18.40;99.90;;;;;;5030114;28;20534;-65
2023/07/30 03:46:02;;;;;;;2.47;2.00;;;18.40;99.90;;;;;;5030099;28;20839;-64
2023/07/30 03:48:27;;;;;;;4.83;2.27;;;18.40;99.90;;;;;;5030372;28;20187;-65
2023/07/30 03:50:54;;;;;;;3.03;2.60;;;18.40;99.90;;;;;;5030404;28;20215;-65
2023/07/30 03:53:20;;;;;;;4.20;2.47;;;18.40;99.90;;;;;;5029086;28;20186;-65
2023/07/30 03:55:45;;;;;;;5.73;3.00;;;18.50;99.90;;;;;;5030534;28;20492;-65
2023/07/30 03:58:11;;;;;;;2.73;2.53;;;18.50;99.90;;;;;;5029768;28;20430;-65
2023/07/30 04:00:37;;;;;;;2.70;2.50;;;18.50;99.90;;;;;;5029973;28;20210;-65
2023/07/30 04:03:02;;;;;;;2.23;2.10;;;18.60;99.90;;;;;;5029772;28;20207;-65
2023/07/30 04:05:29;;;;;;;3.00;2.70;;;18.60;99.90;;;;;;5029560;28;20469;-65
2023/07/30 04:07:55;;;;;;;2.67;2.47;;;18.60;99.90;;;;;;5029411;28;20191;-65
2023/07/30 04:10:20;;;;;;;6.67;1.90;;;18.60;99.90;;;;;;5029196;28;20446;-65
2023/07/30 04:12:46;;;;;;;2.27;2.07;;;18.60;99.90;;;;;;5029326;28;20711;-65
2023/07/30 04:15:12;;;;;;;4.10;2.40;;;18.50;99.90;;;;;;5029164;28;20220;-65
2023/07/30 04:17:38;;;;;;;5.80;2.40;;;18.60;99.90;;;;;;5029271;28;20176;-65
2023/07/30 04:20:04;;;;;;;3.53;2.30;;;18.70;99.90;;;;;;5029219;28;20967;-65
2023/07/30 04:22:30;;;;;;;2.40;2.20;;;18.60;99.90;;;;;;5029076;28;20499;-65
2023/07/30 04:24:56;;;;;;;2.70;2.30;;;18.70;99.90;;;;;;5029105;28;20907;-65
2023/07/30 04:27:21;;;;;;;3.80;2.33;;;18.70;99.90;;;;;;5029257;28;20453;-65
2023/07/30 04:29:47;;;;;;;2.40;2.20;;;18.70;99.90;;;;;;5029001;28;20684;-65
2023/07/30 04:32:13;;;;;;;2.80;2.23;;;18.60;99.90;;;;;;5029186;28;20176;-64
2023/07/30 04:34:38;;;;;;;6.70;2.17;;;18.60;99.90;;;;;;5028898;28;20543;-64
2023/07/30 04:37:04;;;;;;;2.80;2.60;;;18.60;99.90;;;;;;5028864;28;20600;-65
2023/07/30 04:39:32;;;;;;;2.87;2.00;;;18.60;99.90;;;;;;5028823;28;20271;-65
2023/07/30 04:41:57;;;;;;;2.87;2.00;;;18.70;99.90;;;;;;5028754;28;20218;-65
2023/07/30 04:44:23;;;;;;;4.47;2.13;;;18.70;99.90;;;;;;5028653;28;20417;-65
2023/07/30 04:46:49;;;;;;;4.40;2.20;;;18.70;99.90;;;;;;5028841;28;20189;-65
2023/07/30 04:49:14;;;;;;;2.50;2.30;;;18.80;99.90;;;;;;5027047;28;20693;-65
2023/07/30 04:51:40;;;;;;;3.40;2.37;;;18.80;99.90;;;;;;5028544;28;20284;-65
2023/07/30 04:54:06;;;;;;;7.93;1.83;;;18.80;99.90;;;;;;5028235;28;20623;-65
2023/07/30 04:56:31;;;;;;;3.10;2.33;;;18.80;99.90;;;;;;5028561;28;20219;-65
2023/07/30 04:58:57;;;;;;;2.20;2.00;;;18.80;99.90;;;;;;5028494;28;20184;-65
2023/07/30 05:01:24;;;;;;;4.60;2.47;;;18.80;99.90;;;;;;5028359;28;20207;-65
2023/07/30 05:03:50;;;;;;;3.07;2.40;;;18.80;99.90;;;;;;5028280;28;20193;-64
2023/07/30 05:06:15;;;;;;;2.40;2.20;;;18.70;99.90;;;;;;5028415;28;20463;-65
2023/07/30 05:08:41;;;;;;;2.47;2.27;;;18.80;99.90;;;;;;5028555;28;20196;-65
2023/07/30 05:11:07;;;;;;;3.30;2.10;;;18.80;99.90;;;;;;5028298;28;20261;-65
2023/07/30 05:13:32;;;;;;;2.13;2.00;;;18.80;99.90;;;;;;5028283;28;20188;-65
2023/07/30 05:15:58;;;;;;;2.10;1.90;;;18.90;99.90;;;;;;5028337;28;20343;-65
2023/07/30 05:18:24;;;;;;;3.00;2.30;;;18.90;99.90;;;;;;5028317;28;20191;-65
2023/07/30 05:20:49;;;;;;;3.83;1.87;;;19.00;99.90;;;;;;5028192;28;20206;-65
2023/07/30 05:23:15;;;;;;;2.10;1.90;;;19.20;99.90;;;;;;5028253;28;20555;-65
2023/07/30 05:25:41;;;;;;;2.40;2.10;;;19.40;99.90;;;;;;5028249;28;20238;-65
2023/07/30 05:28:06;;;;;;;4.07;2.33;;;19.50;99.90;;;;;;5028170;28;20197;-65
2023/07/30 05:30:32;;;;;;;2.73;2.00;;;19.60;99.90;;;;;;5028222;28;20209;-65
2023/07/30 05:32:57;;;;;;;4.20;2.40;;;19.60;99.90;;;;;;5028116;28;20222;-65
2023/07/30 05:35:23;;;;;;;3.63;2.40;;;19.50;99.90;;;;;;5028122;28;20295;-65
2023/07/30 05:37:48;;;;;;;1.87;1.77;;;19.50;99.90;;;;;;5028139;28;20207;-64
2023/07/30 05:40:14;;;;;;;2.33;2.13;;;19.40;99.90;;;;;;5028018;28;20207;-65
2023/07/30 05:42:40;;;;;;;2.27;2.07;;;19.40;99.90;;;;;;5028048;28;20267;-64
2023/07/30 05:45:06;;;;;;;1.80;1.70;;;19.40;99.90;;;;;;5027985;28;20261;-65
2023/07/30 05:47:31;;;;;;;3.23;2.33;;;19.40;99.90;;;;;;5028071;28;20659;-65
2023/07/30 05:49:57;;;;;;;3.60;2.30;;;19.40;99.90;;;;;;5027943;28;20443;-65
2023/07/30 05:52:23;;;;;;;2.10;1.90;;;19.40;99.90;;;;;;5028170;28;20713;-65
2023/07/30 05:54:48;;;;;;;2.10;1.80;;;19.40;99.90;;;;;;5028197;28;20473;-65
2023/07/30 05:57:14;;;;;;;2.67;2.00;;;19.40;99.90;;;;;;5028024;28;20562;-65
2023/07/30 05:59:40;;;;;;;5.03;2.20;;;19.40;99.90;;;;;;5027877;28;20625;-65
2023/07/30 06:02:05;;;;;;;8.83;2.37;;;19.50;99.90;;;;;;5027857;28;20280;-65
2023/07/30 06:04:31;;;;;;;2.70;2.10;;;19.50;99.90;;;;;;5027917;28;20547;-65
2023/07/30 06:07:02;;;;;;;2.47;2.27;;;19.60;99.90;;;;;;5027969;28;20226;-65
2023/07/30 06:09:28;;;;;;;5.83;2.50;;;19.60;99.90;;;;;;5028023;28;20446;-65
2023/07/30 06:11:58;;;;;;;1.93;1.83;;;19.60;99.90;;;;;;5027726;28;20448;-65
2023/07/30 06:14:24;;;;;;;3.50;2.80;;;19.70;99.90;;;;;;5027767;28;20924;-65
2023/07/30 06:16:51;;;;;;;2.27;2.13;;;19.70;99.90;;;;;;5027569;28;20844;-66
2023/07/30 06:19:16;;;;;;;2.90;2.47;;;19.70;99.90;;;;;;5027691;28;20430;-65
2023/07/30 06:21:42;;;;;;;2.40;2.20;;;19.80;99.90;;;;;;5030138;28;20441;-65
2023/07/30 06:24:08;;;;;;;4.70;2.20;;;20.00;99.90;;;;;;5031281;28;20207;-64
2023/07/30 06:26:33;;;;;;;1.90;1.80;;;20.10;99.90;;;;;;5031551;28;20637;-65
2023/07/30 06:28:59;;;;;;;4.13;2.67;;;20.00;99.90;;;;;;5029510;28;20266;-64
2023/07/30 06:31:24;;;;;;;2.60;2.40;;;20.00;99.90;;;;;;5031075;28;20585;-65
2023/07/30 06:33:50;;;;;;;4.20;2.20;;;20.00;99.90;;;;;;5031070;28;20246;-64
2023/07/30 06:36:16;;;;;;;2.83;2.20;;;19.90;99.90;;;;;;5031082;28;20269;-64
2023/07/30 06:38:41;;;;;;;3.70;2.20;;;19.90;99.90;;;;;;5031029;28;20822;-65
2023/07/30 06:41:07;;;;;;;2.63;2.23;;;19.90;99.90;;;;;;5030963;28;20234;-65
2023/07/30 06:43:32;;;;;;;4.50;1.90;;;19.90;99.90;;;;;;5030955;28;20666;-65
2023/07/30 06:45:58;;;;;;;2.30;2.20;;;20.00;99.90;;;;;;5031009;28;20219;-65
2023/07/30 06:48:24;;;;;;;4.70;2.13;;;20.00;99.90;;;;;;5030973;28;20207;-65
2023/07/30 06:50:49;;;;;;;2.30;2.03;;;20.00;99.90;;;;;;5030688;28;20230;-65
2023/07/30 06:53:15;;;;;;;3.87;2.57;;;19.90;99.90;;;;;;5030685;28;20180;-65
2023/07/30 06:55:41;;;;;;;2.30;2.10;;;19.80;99.90;;;;;;5031111;28;20263;-64
2023/07/30 06:58:06;;;;;;;2.20;1.90;;;19.80;99.90;;;;;;5030749;28;20206;-65
2023/07/30 07:00:32;;;;;;;2.87;2.10;;;19.90;99.90;;;;;;5030592;28;20497;-65
2023/07/30 07:02:58;;;;;;;2.57;2.37;;;19.90;99.90;;;;;;5030977;28;20187;-65
2023/07/30 07:05:23;;;;;;;1.70;1.60;;;19.90;99.90;;;;;;5030872;28;20183;-65
2023/07/30 07:07:49;;;;;;;2.93;1.60;;;20.00;99.90;;;;;;5030469;28;20683;-65
2023/07/30 07:10:14;;;;;;;2.10;1.90;;;20.00;99.90;;;;;;5030721;28;20293;-66
2023/07/30 07:12:40;;;;;;;2.30;2.10;;;20.10;99.90;;;;;;5030671;28;20192;-65
2023/07/30 07:15:06;;;;;;;2.57;1.87;;;20.30;99.90;;;;;;5030875;28;20253;-65
2023/07/30 07:17:32;;;;;;;2.50;1.80;;;20.30;99.90;;;;;;5030932;28;20503;-65
2023/07/30 07:19:58;;;;;;;4.90;2.10;;;20.50;99.90;;;;;;5029424;28;20422;-65
2023/07/30 07:22:24;;;;;;;1.80;1.70;;;20.60;99.90;;;;;;5030927;28;20265;-65
2023/07/30 07:24:52;;;;;;;2.57;2.37;;;20.70;99.90;;;;;;5031246;28;20614;-65
2023/07/30 07:27:18;;;;;;;1.87;1.60;;;20.80;99.90;;;;;;5031088;28;20455;-65
2023/07/30 07:29:44;;;;;;;3.83;2.23;;;20.90;99.90;;;;;;5031343;28;20973;-65
2023/07/30 07:32:09;;;;;;;1.90;1.80;;;20.90;99.90;;;;;;5029956;28;20462;-65
2023/07/30 07:34:35;;;;;;;2.03;1.70;;;20.90;99.90;;;;;;5030893;28;20552;-64
2023/07/30 07:37:02;;;;;;;1.90;1.70;;;20.90;99.90;;;;;;5030138;28;20228;-65
2023/07/30 07:39:27;;;;;;;5.50;1.87;;;20.90;99.90;;;;;;5029587;28;20183;-65
2023/07/30 07:41:53;;;;;;;1.77;1.37;;;20.80;99.90;;;;;;5029479;28;20447;-65
2023/07/30 07:44:18;;;;;;;4.07;1.70;;;20.70;99.90;;;;;;5029506;28;20565;-65
2023/07/30 07:46:44;;;;;;;1.60;1.50;;;20.60;99.90;;;;;;5029444;28;20226;-64
2023/07/30 07:49:09;;;;;;;1.93;1.73;;;20.60;99.90;;;;;;5028069;28;20246;-64
2023/07/30 07:51:35;;;;;;;2.10;1.90;;;20.40;99.90;;;;;;5029659;28;20216;-65
2023/07/30 07:54:01;;;;;;;2.43;2.07;;;20.30;99.90;;;;;;5029439;28;20618;-66
2023/07/30 07:56:26;;;;;;;3.23;2.00;;;20.10;99.90;;;;;;5029181;28;20216;-64
2023/07/30 07:58:52;;;;;;;2.20;1.67;;;19.50;99.90;;;;;;5028942;28;20216;-64
2023/07/30 08:01:18;;;;;;;4.03;2.30;;;19.00;99.90;;;;;;5028962;28;20222;-65
2023/07/30 08:03:44;;;;;;;2.33;2.07;;;18.70;99.90;;;;;;5029083;28;20224;-64
2023/07/30 08:06:09;;;;;;;2.07;1.87;;;18.50;99.90;;;;;;5028745;28;20201;-65
2023/07/30 08:08:35;;;;;;;3.40;2.10;;;18.50;99.90;;;;;;5028673;28;20426;-65
2023/07/30 08:11:06;;;;;;;5.33;1.83;;;18.40;99.90;;;;;;5028534;28;20216;-65
2023/07/30 08:13:32;;;;;;;2.53;1.60;;;18.40;99.90;;;;;;5028186;28;20755;-64
2023/07/30 08:15:57;;;;;;;2.27;1.77;;;18.40;99.90;;;;;;5027945;28;20466;-64
2023/07/30 08:18:23;;;;;;;3.10;1.47;;;18.30;99.90;;;;;;5028055;28;20191;-64
2023/07/30 08:20:50;;;;;;;2.83;1.70;;;18.40;99.90;;;;;;5028237;28;20210;-64
2023/07/30 08:23:15;;;;;;;5.40;1.70;;;18.40;99.90;;;;;;5028111;28;20271;-64
2023/07/30 08:25:41;;;;;;;3.10;1.70;;;18.50;99.90;;;;;;5028093;28;20530;-65
2023/07/30 08:28:06;;;;;;;4.87;1.80;;;18.50;99.90;;;;;;5027991;28;20192;-64
2023/07/30 08:30:32;;;;;;;1.23;1.13;;;18.60;99.90;;;;;;5028127;28;20273;-65
2023/07/30 08:32:57;;;;;;;1.80;1.70;;;18.80;99.90;;;;;;5028321;28;20187;-64
2023/07/30 08:35:23;;;;;;;2.77;1.73;;;19.10;99.90;;;;;;5027903;28;20216;-64
2023/07/30 08:37:49;;;;;;;7.03;1.57;;;19.30;99.90;;;;;;5028109;28;20203;-64
2023/07/30 08:40:15;;;;;;;2.37;2.17;;;19.30;99.90;;;;;;5027825;28;20214;-64
2023/07/30 08:42:40;;;;;;;2.93;2.13;;;19.40;99.90;;;;;;5027809;28;20216;-64
2023/07/30 08:45:10;;;;;;;3.60;1.70;;;19.40;99.90;;;;;;5027735;28;20428;-64
2023/07/30 08:47:35;;;;;;;1.87;1.70;;;19.70;99.90;;;;;;5028169;28;20196;-64
2023/07/30 08:50:01;;;;;;;2.47;1.80;;;19.90;99.90;;;;;;5027995;28;20470;-64
2023/07/30 08:52:29;;;;;;;3.10;1.80;;;19.90;99.90;;;;;;5028203;28;20196;-64
2023/07/30 08:54:56;;;;;;;3.93;1.87;;;20.10;99.90;;;;;;5028201;28;20235;-64
2023/07/30 08:57:23;;;;;;;3.10;2.10;;;20.30;99.90;;;;;;5028214;28;20426;-65
2023/07/30 09:00:00;;;;;;;7.50;1.60;;;20.40;99.90;;;;;;5028214;28;20481;-65
2023/07/30 09:02:49;;;;;;;3.33;1.40;;;20.40;99.90;;;;;;5028169;28;20409;-65
2023/07/30 09:05:15;;;;;;;3.97;1.87;;;20.40;99.90;;;;;;5027794;28;20867;-64
2023/07/30 09:07:41;;;;;;;2.90;1.97;;;20.60;99.90;;;;;;5027843;28;20433;-65
2023/07/30 09:10:07;;;;;;;2.97;1.53;;;20.70;99.90;;;;;;5028215;28;20315;-65
2023/07/30 09:12:34;;;;;;;2.90;1.73;;;20.80;99.90;;;;;;5028358;28;21328;-65
2023/07/30 09:15:01;;;;;;;2.70;2.10;;;21.00;99.90;;;;;;5028553;28;20839;-64
2023/07/30 09:17:27;;;;;;;2.23;1.87;;;21.10;99.90;;;;;;5028436;28;20421;-64
2023/07/30 09:19:53;;;;;;;1.40;1.30;;;21.20;99.90;;;;;;5028358;28;20415;-64
2023/07/30 09:22:29;;;;;;;2.00;1.77;;;21.20;99.90;;;;;;5028363;28;20199;-65
2023/07/30 09:24:56;;;;;;;1.97;1.80;;;21.20;99.90;;;;;;5028435;28;20172;-65
2023/07/30 09:27:26;;;;;;;2.10;1.90;;;21.10;99.90;;;;;;5028192;28;20514;-65
2023/07/30 09:29:58;;;;;;;4.57;1.60;;;21.00;99.90;;;;;;5028301;28;20537;-65
2023/07/30 09:32:31;;;;;;;1.80;1.70;;;20.90;99.90;;;;;;5028411;28;20508;-66
2023/07/30 09:35:08;;;;;;;2.37;1.40;;;20.70;99.90;;;;;;5028255;28;20956;-66
2023/07/30 09:37:41;;;;;;;2.27;1.80;;;20.50;99.90;;;;;;5028424;28;20774;-65
2023/07/30 09:40:08;;;;;;;2.63;2.10;;;20.40;99.90;;;;;;5028325;28;20442;-66
2023/07/30 09:42:39;;;;;;;2.27;2.07;;;20.30;99.90;;;;;;5028418;28;20941;-65
2023/07/30 09:45:07;;;;;;;4.37;2.60;;;20.20;99.90;;;;;;5028440;28;20425;-65
2023/07/30 09:47:34;;;;;;;1.70;1.60;;;20.10;99.90;;;;;;5028113;28;20419;-65
2023/07/30 09:49:59;;;;;;;3.50;2.77;;;20.00;99.90;;;;;;5027937;28;20513;-65
2023/07/30 09:52:25;;;;;;;1.77;1.67;;;19.90;99.90;;;;;;5028072;28;20430;-65
2023/07/30 09:54:52;;;;;;;2.87;1.80;;;19.90;99.90;;;;;;5028012;28;20303;-65
2023/07/30 09:57:17;;;;;;;4.37;1.87;;;19.70;99.90;;;;;;5031814;28;20253;-66
2023/07/30 09:59:43;;;;;;;1.70;1.50;;;19.70;99.90;;;;;;5031950;28;20901;-66
2023/07/30 10:02:11;;;;;;;5.90;1.97;;;19.70;99.90;;;;;;5031765;28;20231;-66
2023/07/30 10:04:43;;;;;;;2.20;2.00;;;19.70;99.90;;;;;;5031403;28;20621;-66
2023/07/30 10:07:14;;;;;;;2.23;2.03;;;19.70;99.90;;;;;;5030969;28;20918;-66
2023/07/30 10:09:44;;;;;;;4.13;2.10;;;19.60;99.90;;;;;;5030568;28;20423;-65
2023/07/30 10:12:15;;;;;;;3.90;1.50;;;19.40;99.90;;;;;;5030671;28;20492;-66
2023/07/30 10:14:42;;;;;;;1.47;1.37;;;19.40;99.90;;;;;;5030848;28;20425;-66
2023/07/30 10:17:10;;;;;;;1.60;1.50;;;19.40;99.90;;;;;;5030616;28;20480;-66
2023/07/30 10:19:37;;;;;;;1.53;1.43;;;19.40;99.90;;;;;;5030585;28;20429;-66
2023/07/30 10:22:22;;;;;;;1.87;1.60;;;19.40;99.90;;;;;;5030068;28;20448;-65
2023/07/30 10:24:57;;;;;;;3.03;1.97;;;19.20;99.90;;;;;;5030100;28;20887;-66
2023/07/30 10:27:27;;;;;;;2.60;1.93;;;19.40;99.90;;;;;;5030562;28;20419;-66
2023/07/30 10:30:17;;;;;;;4.90;1.80;;;19.70;99.90;;;;;;5029921;28;20415;-65
2023/07/30 10:32:55;;;;;;;1.30;1.20;;;19.90;99.90;;;;;;5027308;28;20462;-65
2023/07/30 10:35:37;;;;;;;3.83;1.90;;;20.10;99.90;;;;;;5029974;28;20941;-65
2023/07/30 10:38:17;;;;;;;3.93;1.73;;;20.10;99.90;;;;;;5029747;28;20492;-65
2023/07/30 10:41:01;;;;;;;2.73;1.87;;;20.30;99.90;;;;;;5029456;28;20474;-65
2023/07/30 10:43:31;;;;;;;2.13;1.97;;;20.40;99.90;;;;;;5029614;28;20929;-65
2023/07/30 10:45:56;;;;;;;2.90;1.60;;;20.50;99.90;;;;;;5029855;28;21252;-65
2023/07/30 10:48:33;;;;;;;7.63;1.80;;;20.50;99.90;;;;;;5029628;28;20430;-65
2023/07/30 10:51:01;;;;;;;3.20;1.80;;;20.60;99.90;;;;;;5029314;28;20235;-65
2023/07/30 10:53:27;;;;;;;2.10;1.90;;;20.70;99.90;;;;;;5029397;28;20511;-65
2023/07/30 10:55:54;;;;;;;4.20;1.63;;;20.70;99.90;;;;;;5029345;28;20478;-65
2023/07/30 10:58:22;;;;;;;4.23;1.87;;;20.80;99.90;;;;;;5029541;28;20343;-65
2023/07/30 11:00:49;;;;;;;3.00;2.00;;;20.90;99.90;;;;;;5029538;28;20454;-65
2023/07/30 11:03:14;;;;;;;2.30;1.80;;;20.90;99.90;;;;;;5029292;28;20499;-66
2023/07/30 11:05:40;;;;;;;1.57;1.47;;;21.10;99.90;;;;;;5029258;28;21040;-65
2023/07/30 11:08:06;;;;;;;2.40;1.60;;;21.30;99.90;;;;;;5029065;28;20192;-65
2023/07/30 11:10:31;;;;;;;1.60;1.50;;;21.60;99.90;;;;;;5029195;28;20389;-65
2023/07/30 11:12:57;;;;;;;2.00;1.80;;;21.90;99.90;;;;;;5029146;28;20205;-65
2023/07/30 11:15:24;;;;;;;1.90;1.80;;;21.90;99.90;;;;;;5029053;28;20212;-65
2023/07/30 11:17:52;;;;;;;1.83;1.73;;;22.00;99.90;;;;;;5027843;28;20426;-65
2023/07/30 11:20:27;;;;;;;3.30;1.73;;;22.30;99.90;;;;;;5028901;28;20552;-65
2023/07/30 11:22:53;;;;;;;4.50;2.30;;;22.80;99.90;;;;;;5028663;28;21132;-65
2023/07/30 11:25:19;;;;;;;5.00;2.10;;;23.20;99.90;;;;;;5029110;28;20809;-65
2023/07/30 11:27:49;;;;;;;3.73;1.80;;;23.30;99.90;;;;;;5028804;28;20427;-65
2023/07/30 11:30:15;;;;;;;2.80;1.93;;;23.10;99.90;;;;;;5028868;28;20502;-65
2023/07/30 11:32:44;;;;;;;2.13;1.73;;;23.20;99.90;;;;;;5028829;28;20835;-65
2023/07/30 11:35:11;;;;;;;1.97;1.87;;;23.60;99.90;;;;;;5028623;28;20197;-65
2023/07/30 11:37:39;;;;;;;1.57;1.47;;;23.80;99.90;;;;;;5028631;28;20453;-65
2023/07/30 11:40:07;;;;;;;2.50;1.70;;;24.10;99.90;;;;;;5028370;28;20439;-65
2023/07/30 11:42:37;;;;;;;3.47;2.17;;;24.50;99.90;;;;;;5028423;28;20799;-65
2023/07/30 11:45:20;;;;;;;3.27;1.80;;;25.00;99.90;;;;;;5028270;28;20506;-65
2023/07/30 11:47:45;;;;;;;2.87;1.73;;;25.30;99.90;;;;;;5028417;28;20425;-65
2023/07/30 11:50:11;;;;;;;1.70;1.60;;;25.40;99.90;;;;;;5028292;28;20566;-65
2023/07/30 11:52:36;;;;;;;2.80;2.00;;;25.60;99.90;;;;;;5028400;28;20303;-65
2023/07/30 11:55:05;;;;;;;2.13;1.60;;;25.70;99.90;;;;;;5028085;28;20662;-65
2023/07/30 11:57:37;;;;;;;3.07;2.10;;;25.80;99.90;;;;;;5028124;28;20561;-65
2023/07/30 12:00:08;;;;;;;1.80;1.70;;;25.50;99.90;;;;;;5026589;28;20446;-65
2023/07/30 12:02:33;;;;;;;4.30;1.60;;;25.50;99.90;;;;;;5028067;28;20797;-65
2023/07/30 12:04:59;;;;;;;1.83;1.73;;;25.70;99.90;;;;;;5028085;28;20432;-65
2023/07/30 12:07:25;;;;;;;3.13;2.40;;;25.60;99.90;;;;;;5028070;28;20194;-65
2023/07/30 12:09:51;;;;;;;2.90;2.40;;;25.40;99.90;;;;;;5027800;28;20187;-66
2023/07/30 12:12:16;;;;;;;3.80;2.57;;;25.10;99.30;;;;;;5027795;28;20424;-66
2023/07/30 12:14:48;;;;;;;3.53;2.00;;;24.90;97.70;;;;;;5027773;28;20195;-65
2023/07/30 12:17:13;;;;;;;1.90;1.80;;;25.10;99.20;;;;;;5027630;28;20212;-66
2023/07/30 12:19:40;;;;;;;3.00;1.80;;;25.50;99.90;;;;;;5027028;28;20431;-65
2023/07/30 12:22:06;;;;;;;2.03;1.83;;;25.40;97.40;;;;;;5027647;28;20233;-66
2023/07/30 12:24:31;;;;;;;2.40;2.00;;;24.80;98.60;;;;;;5027959;28;20441;-66
2023/07/30 12:26:57;;;;;;;2.80;1.90;;;24.50;98.20;;;;;;5027796;28;20198;-66
2023/07/30 12:29:22;;;;;;;2.20;2.10;;;24.60;98.80;;;;;;5026282;28;20186;-66
2023/07/30 12:31:50;;;;;;;3.60;1.87;;;24.70;98.70;;;;;;5027734;28;20221;-66
2023/07/30 12:34:15;;;;;;;2.10;1.90;;;25.20;97.30;;;;;;5027241;28;20696;-66
2023/07/30 12:36:41;;;;;;;2.97;2.10;;;25.50;98.30;;;;;;5027256;28;20472;-66
2023/07/30 12:39:07;;;;;;;4.13;1.57;;;25.50;97.60;;;;;;5027369;28;20218;-66
2023/07/30 12:41:33;;;;;;;3.03;2.20;;;25.60;96.20;;;;;;5027335;28;20224;-66
2023/07/30 12:43:59;;;;;;;2.67;2.00;;;25.30;97.00;;;;;;5027321;28;21013;-66
2023/07/30 12:46:29;;;;;;;2.17;1.97;;;25.20;96.80;;;;;;5027196;28;20784;-66